Impacts TAF Board
For situational awareness. Not to be used for flight planning purposes.
IDs:

KBWI - Baltimore-Washington, MD, US

Issued at 2341 UTC 15 Oct 2018
Updated at 0152 UTC 16 Oct 2018
Potential Impact None Slight Moderate High
Time0054Z 16/02Z 16/03Z 16/04Z 16/05Z 16/06Z 16/07Z 16/08Z 16/09Z 16/10Z 16/11Z 16/12Z 16/13Z 16/14Z>>
Type OBS PRVL PRVL PRVL PRVL PRVL PRVL PRVL PRVL PRVL PRVL PRVL PRVL PRVL
VIS 10 >6 >6 >6 >6 >6 >6 >6 >6 >6 >6 >6 >6 >6
CIG 120 50 50 100 100 100 100 100 100 100 -- -- -- --
Cover BKN OVC OVC BKN BKN BKN BKN BKN BKN BKN SCT SCT SCT SCT
FltCat VFR VFR VFR VFR VFR VFR VFR VFR VFR VFR VFR VFR VFR VFR
WX -- VCSH VCSH -- -- -- -- -- -- -- -- -- -- --
WDir 230 260 260 320 320 320 320 320 320 320 320 320 320 320
WSpd 9 5 5 15 15 15 15 15 15 15 8 8 8 8
WGst 17 -- -- 25 25 25 25 25 25 25 16 16 16 16
Raw TAF
KBWI 152341Z 1600/1706 26005KT P6SM VCSH BKN050 OVC100
  FM160400 32015G25KT P6SM SCT050 BKN100
  FM161100 32008G16KT P6SM SCT100
  FM161700 32008KT P6SM SCT100
  FM162200 25005KT P6SM SCT100
  FM170200 19004KT P6SM SCT100


Raw METAR
KBWI 160054Z 23009G17KT 10SM FEW070 BKN120 BKN250 21/18 A2994 RMK AO2 SLP138 T02110183
KBWI 152354Z 24006KT 10SM FEW100 BKN140 BKN180 19/18 A2995 RMK AO2 SLP143 60003 T01940183 10194 20183 55004
KBWI 152254Z 26005KT 10SM FEW110 BKN140 BKN180 19/18 A2994 RMK AO2 SLP139 T01890183

METAR Board
Radar Display
Forecast Discussion
For situational awareness. Not to be used for flight planning purposes.